Time;durP1;ratioP1;P1;durP2;ratioP2;P2;SDS_P1;SDS_P2;PMS_P1;PMS_P2;Temp;Humidity;BMP_temperature;BMP_pressure;BME280_temperature;BME280_humidity;BME280_pressure;Samples;Min_cycle;Max_cycle;Signal;HPM_P1;HPM_P2
2021/12/21 00:01:21;;;;;;;14.00;9.08;;;;;;;-2.65;84.25;96995.77;1718725;82;21462;-89
2021/12/21 00:03:46;;;;;;;15.55;9.73;;;;;;;-2.71;84.06;96998.20;1714589;83;21132;-89
2021/12/21 00:06:12;;;;;;;13.78;9.00;;;;;;;-2.76;84.13;97003.55;1715834;82;21099;-88
2021/12/21 00:08:38;;;;;;;20.45;10.55;;;;;;;-2.74;84.29;97002.20;1717016;83;21078;-86
2021/12/21 00:11:03;;;;;;;15.00;9.53;;;;;;;-2.81;83.97;97001.70;1699371;83;21471;-85
2021/12/21 00:18:40;;;;;;;16.15;9.70;;;;;;;-2.87;84.33;97020.30;1714068;82;21081;-88
2021/12/21 00:23:34;;;;;;;17.23;10.28;;;;;;;-2.77;84.38;97021.42;1706486;83;21068;-88
2021/12/21 00:26:06;;;;;;;13.75;9.13;;;;;;;-2.77;84.48;97017.60;1707145;83;21035;-88
2021/12/21 00:28:38;;;;;;;15.95;10.40;;;;;;;-2.73;84.51;97025.00;1699715;83;21079;-88
2021/12/21 00:31:00;;;;;;;17.67;10.15;;;;;;;-2.69;84.37;97023.56;1710104;82;21029;-89
2021/12/21 00:33:26;;;;;;;16.80;9.43;;;;;;;-2.67;84.43;97021.30;1688363;83;21036;-89
2021/12/21 00:35:51;;;;;;;14.68;9.80;;;;;;;-2.65;84.38;97023.75;1712175;83;21052;-88
2021/12/21 00:38:17;;;;;;;15.45;9.80;;;;;;;-2.64;84.39;97025.38;1707115;83;21098;-88
2021/12/21 00:40:43;;;;;;;13.05;8.53;;;;;;;-2.62;84.45;97033.75;1713930;83;21004;-88
2021/12/21 00:43:08;;;;;;;14.55;9.03;;;;;;;-2.61;84.44;97034.11;1716636;81;21020;-88
2021/12/21 00:45:35;;;;;;;12.05;8.30;;;;;;;-2.66;83.63;97030.56;1716317;83;21028;-88
2021/12/21 00:48:01;;;;;;;14.68;8.35;;;;;;;-2.70;83.72;97029.55;1718826;83;21629;-88
2021/12/21 00:50:27;;;;;;;12.82;8.43;;;;;;;-2.74;83.83;97028.91;1703832;82;21087;-89
2021/12/21 00:52:53;;;;;;;12.25;8.10;;;;;;;-2.76;84.09;97029.45;1708454;83;21008;-88
2021/12/21 00:55:19;;;;;;;14.65;9.33;;;;;;;-2.72;84.10;97038.55;1691670;83;20989;-88
2021/12/21 00:57:47;;;;;;;13.38;7.60;;;;;;;-2.66;84.33;97036.10;1713893;82;21020;-88
2021/12/21 01:00:15;;;;;;;12.25;8.75;;;;;;;-2.62;84.09;97037.56;1718853;82;21430;-88
2021/12/21 01:02:42;;;;;;;16.60;10.05;;;;;;;-2.61;84.07;97035.39;1707858;81;21419;-88
2021/12/21 01:05:18;;;;;;;11.73;7.47;;;;;;;-2.56;84.10;97037.25;1711599;82;20992;-89
2021/12/21 01:07:42;;;;;;;14.63;8.80;;;;;;;-2.59;83.71;97043.33;1715066;82;21104;-89
2021/12/21 01:10:46;;;;;;;11.70;8.88;;;;;;;-2.61;83.56;97040.47;1720089;83;21072;-88
2021/12/21 01:25:40;;;;;;;14.23;8.28;;;;;;;-2.50;83.30;97043.25;1710734;83;21039;-89
2021/12/21 01:28:02;;;;;;;14.38;8.38;;;;;;;-2.51;83.19;97044.16;1711190;82;21034;-89
2021/12/21 01:35:37;;;;;;;14.75;8.43;;;;;;;-2.58;83.56;97042.88;1659032;85;21072;-88
2021/12/21 01:38:07;;;;;;;15.65;8.18;;;;;;;-2.53;83.87;97042.98;1719019;82;21481;-89
2021/12/21 01:40:43;;;;;;;14.25;8.58;;;;;;;-2.49;83.95;97044.44;1717609;82;21124;-89
2021/12/21 01:50:59;;;;;;;11.78;8.28;;;;;;;-2.42;83.48;97033.48;1686820;82;21642;-89
2021/12/21 01:53:25;;;;;;;15.15;8.78;;;;;;;-2.46;83.74;97023.91;1714211;81;21008;-89
2021/12/21 01:55:51;;;;;;;14.78;8.88;;;;;;;-2.38;83.88;97033.67;1711289;83;21015;-88
2021/12/21 01:58:17;;;;;;;15.93;9.28;;;;;;;-2.35;83.77;97044.95;1708410;83;20987;-89
2021/12/21 02:00:43;;;;;;;10.55;8.13;;;;;;;-2.32;83.76;97039.67;1713277;82;21055;-89
2021/12/21 02:03:09;;;;;;;16.82;9.53;;;;;;;-2.32;83.74;97033.77;1721354;82;21159;-89
2021/12/21 02:05:37;;;;;;;20.72;10.98;;;;;;;-2.37;83.40;97037.03;1692021;83;21023;-89
2021/12/21 02:08:04;;;;;;;15.68;10.93;;;;;;;-2.37;83.58;97031.49;1717030;82;21517;-89
2021/12/21 02:10:30;;;;;;;17.73;10.35;;;;;;;-2.37;83.48;97034.48;1717562;83;21016;-89
2021/12/21 02:12:56;;;;;;;17.57;10.95;;;;;;;-2.40;83.68;97034.21;1681080;83;21070;-89
2021/12/21 02:15:24;;;;;;;20.10;11.80;;;;;;;-2.38;83.83;97035.40;1720401;82;21094;-89
2021/12/21 02:23:03;;;;;;;18.25;10.63;;;;;;;-2.35;83.96;97037.31;1700386;82;21044;-89
2021/12/21 02:28:10;;;;;;;19.52;12.55;;;;;;;-2.35;83.75;97035.22;1715700;81;21379;-89
2021/12/21 02:30:21;;;;;;;21.00;12.35;;;;;;;-2.38;83.63;97034.13;1703042;82;21385;-89
2021/12/21 02:32:47;;;;;;;21.10;12.78;;;;;;;-2.38;83.59;97029.03;1716515;83;21011;-89
2021/12/21 02:35:13;;;;;;;22.30;12.82;;;;;;;-2.40;83.70;97033.39;1700186;83;21049;-88
2021/12/21 02:37:39;;;;;;;20.10;13.48;;;;;;;-2.43;83.93;97032.66;1713898;83;21043;-89
2021/12/21 02:40:06;;;;;;;19.45;12.55;;;;;;;-2.37;84.07;97034.48;1705380;83;21013;-89
2021/12/21 02:42:32;;;;;;;24.50;13.05;;;;;;;-2.36;83.99;97025.95;1704497;83;21090;-89
2021/12/21 02:44:58;;;;;;;27.15;17.23;;;;;;;-2.39;83.74;97021.03;1703169;83;21096;-89
2021/12/21 02:47:23;;;;;;;23.25;13.80;;;;;;;-2.40;83.81;97021.94;1709994;83;21059;-88
2021/12/21 02:49:49;;;;;;;21.00;12.65;;;;;;;-2.38;83.99;97013.31;1715951;81;21032;-89
2021/12/21 02:52:15;;;;;;;22.93;12.25;;;;;;;-2.36;84.08;97014.49;1706927;82;21103;-88
2021/12/21 02:54:40;;;;;;;24.70;12.73;;;;;;;-2.36;83.97;97009.41;1702439;81;21001;-89
2021/12/21 02:57:06;;;;;;;17.25;11.22;;;;;;;-2.36;84.14;97002.59;1714184;83;21446;-89
2021/12/21 02:59:32;;;;;;;17.42;11.38;;;;;;;-2.27;83.97;97008.89;1716996;82;21079;-89
2021/12/21 03:01:58;;;;;;;17.10;10.72;;;;;;;-2.23;84.14;97006.53;1717277;82;20972;-89
2021/12/21 03:04:24;;;;;;;15.88;10.30;;;;;;;-2.21;83.77;97009.35;1700703;82;21071;-88
2021/12/21 03:14:31;;;;;;;16.62;11.30;;;;;;;-2.13;83.50;97007.63;1704156;82;21126;-89
2021/12/21 03:16:57;;;;;;;18.07;11.08;;;;;;;-2.12;83.63;97011.38;1720231;82;21003;-89
2021/12/21 03:19:23;;;;;;;19.67;11.43;;;;;;;-2.11;83.65;97008.38;1706707;82;20999;-89
2021/12/21 03:21:50;;;;;;;20.17;10.23;;;;;;;-2.12;83.58;97014.35;1663844;83;21095;-89
2021/12/21 03:24:15;;;;;;;17.85;10.43;;;;;;;-2.13;83.50;97003.80;1676237;84;21048;-89
2021/12/21 03:26:41;;;;;;;19.98;10.93;;;;;;;-2.13;83.51;97005.89;1663875;84;21107;-89
2021/12/21 03:29:07;;;;;;;17.45;10.63;;;;;;;-2.14;83.55;97002.98;1676390;84;21396;-89
2021/12/21 03:31:33;;;;;;;20.52;9.98;;;;;;;-2.17;83.39;97003.63;1711042;81;21442;-89
2021/12/21 03:33:58;;;;;;;18.05;10.60;;;;;;;-2.15;83.46;96994.16;1686005;83;21094;-89
2021/12/21 03:36:24;;;;;;;20.00;10.13;;;;;;;-2.15;83.49;96992.44;1714197;83;21101;-88
2021/12/21 03:38:59;;;;;;;19.10;12.90;;;;;;;-2.10;83.70;96996.47;1710623;81;21484;-89
2021/12/21 03:41:21;;;;;;;18.30;12.47;;;;;;;-2.06;83.72;96996.19;1724241;83;20989;-88
2021/12/21 03:43:47;;;;;;;15.60;11.10;;;;;;;-2.03;83.79;96994.73;1719826;83;20988;-88
2021/12/21 03:46:14;;;;;;;19.55;13.08;;;;;;;-2.06;83.64;97003.83;1705034;82;21422;-89
2021/12/21 03:48:44;;;;;;;16.80;10.45;;;;;;;-2.03;83.78;96999.01;1714201;81;21063;-89
2021/12/21 03:51:10;;;;;;;18.20;11.33;;;;;;;-2.04;83.70;97001.20;1707647;83;21004;-89
2021/12/21 03:53:36;;;;;;;18.90;12.82;;;;;;;-2.01;83.91;97012.02;1715256;81;21423;-89
2021/12/21 03:56:27;;;;;;;24.27;13.30;;;;;;;-1.98;83.87;97003.38;1715878;81;21449;-89
2021/12/21 03:58:34;;;;;;;19.47;12.93;;;;;;;-1.98;83.85;97004.19;1708287;83;21374;-89
2021/12/21 04:01:00;;;;;;;18.90;12.25;;;;;;;-1.96;83.86;97009.19;1713410;82;21008;-89
2021/12/21 04:03:25;;;;;;;20.08;12.40;;;;;;;-1.98;83.77;97005.92;1711547;82;21087;-89
2021/12/21 04:05:51;;;;;;;20.35;12.88;;;;;;;-1.99;83.94;97013.20;1718392;82;21027;-89
2021/12/21 04:08:17;;;;;;;18.05;12.60;;;;;;;-2.01;83.81;97011.20;1718046;81;21145;-89
2021/12/21 04:10:43;;;;;;;17.35;10.35;;;;;;;-2.00;83.91;97004.73;1716844;81;21080;-88
2021/12/21 04:13:10;;;;;;;18.32;10.85;;;;;;;-1.98;83.91;97012.28;1709356;83;21439;-89
2021/12/21 04:15:43;;;;;;;17.87;11.48;;;;;;;-2.02;83.77;97012.92;1709958;82;21003;-89
2021/12/21 04:18:07;;;;;;;18.10;11.25;;;;;;;-2.04;84.08;97009.66;1712359;82;21043;-89
2021/12/21 04:20:34;;;;;;;18.95;11.28;;;;;;;-2.04;84.00;97010.11;1722122;82;21032;-89
2021/12/21 04:22:59;;;;;;;18.27;11.28;;;;;;;-2.06;84.07;97013.20;1712515;83;21007;-89
2021/12/21 04:25:27;;;;;;;19.30;12.07;;;;;;;-2.11;84.00;97016.02;1708939;82;21306;-89
2021/12/21 04:27:52;;;;;;;17.00;10.88;;;;;;;-2.13;84.22;97024.17;1721013;81;20998;-89
2021/12/21 04:30:18;;;;;;;18.05;11.63;;;;;;;-2.12;84.41;97021.56;1712164;81;21296;-89
2021/12/21 04:32:44;;;;;;;16.97;11.85;;;;;;;-2.10;84.58;97012.56;1707862;81;20992;-89
2021/12/21 04:35:10;;;;;;;20.08;11.75;;;;;;;-2.08;84.51;97017.11;1716155;82;21094;-88
2021/12/21 04:37:44;;;;;;;20.05;13.18;;;;;;;-2.08;84.57;97013.74;1713850;82;21481;-89
2021/12/21 04:40:14;;;;;;;20.75;13.10;;;;;;;-2.07;84.65;97014.92;1708715;81;21442;-88
2021/12/21 04:42:36;;;;;;;20.75;13.00;;;;;;;-2.09;84.66;97014.66;1689417;82;21070;-89
2021/12/21 04:45:03;;;;;;;16.12;11.75;;;;;;;-2.10;84.71;97020.66;1719344;82;21495;-89
2021/12/21 04:47:29;;;;;;;19.20;12.70;;;;;;;-2.12;84.81;97024.11;1716347;82;21004;-89
2021/12/21 04:49:55;;;;;;;20.65;12.80;;;;;;;-2.15;84.90;97026.81;1714137;81;21038;-88
2021/12/21 04:52:20;;;;;;;22.27;14.07;;;;;;;-2.14;85.06;97030.17;1719478;81;21003;-89
2021/12/21 04:54:46;;;;;;;20.25;13.28;;;;;;;-2.14;85.22;97027.63;1705467;82;21458;-89
2021/12/21 04:57:12;;;;;;;18.12;11.55;;;;;;;-2.14;85.24;97030.17;1714783;82;20977;-88
2021/12/21 04:59:37;;;;;;;20.15;12.98;;;;;;;-2.15;85.35;97027.27;1716843;81;21083;-89
2021/12/21 05:02:04;;;;;;;19.65;13.35;;;;;;;-2.19;85.30;97026.63;1711478;81;21474;-89
2021/12/21 05:04:31;;;;;;;18.48;13.58;;;;;;;-2.17;85.57;97027.36;1710071;82;21184;-88
2021/12/21 05:06:56;;;;;;;20.12;13.58;;;;;;;-2.12;85.61;97036.00;1713483;82;21433;-89
2021/12/21 05:09:26;;;;;;;25.15;14.87;;;;;;;-2.08;85.77;97031.56;1708774;81;21145;-89
2021/12/21 05:11:53;;;;;;;21.37;13.95;;;;;;;-2.07;85.74;97031.94;1713091;82;21024;-88
2021/12/21 05:14:19;;;;;;;21.40;13.22;;;;;;;-2.05;85.73;97037.30;1708764;82;21263;-89
2021/12/21 05:16:45;;;;;;;21.10;13.55;;;;;;;-2.05;85.54;97032.66;1697911;82;21150;-89
2021/12/21 05:19:10;;;;;;;18.82;12.88;;;;;;;-2.07;85.45;97030.20;1716018;81;20999;-89
2021/12/21 05:21:36;;;;;;;22.02;13.05;;;;;;;-2.07;85.51;97026.84;1717439;82;21075;-89
2021/12/21 05:24:02;;;;;;;20.95;13.00;;;;;;;-2.08;85.62;97024.75;1720264;82;21049;-89
2021/12/21 05:26:28;;;;;;;24.70;14.30;;;;;;;-2.05;85.76;97022.02;1717384;83;21047;-89
2021/12/21 05:28:54;;;;;;;21.50;13.40;;;;;;;-2.02;85.85;97035.84;1712894;83;21410;-89
2021/12/21 05:31:20;;;;;;;23.52;14.40;;;;;;;-2.00;85.83;97032.75;1706103;82;21040;-88
2021/12/21 05:33:50;;;;;;;22.22;14.63;;;;;;;-1.97;85.89;97031.75;1710457;83;21075;-89
2021/12/21 05:36:14;;;;;;;24.10;15.60;;;;;;;-1.93;85.99;97027.69;1711828;83;21063;-89
2021/12/21 05:38:46;;;;;;;22.20;15.45;;;;;;;-1.88;85.96;97027.41;1702454;83;21431;-89
2021/12/21 05:41:12;;;;;;;23.47;14.35;;;;;;;-1.92;85.78;97034.41;1708421;83;21076;-89
2021/12/21 05:43:35;;;;;;;23.65;15.20;;;;;;;-1.96;85.67;97038.02;1687257;83;21056;-89
2021/12/21 05:46:00;;;;;;;21.50;14.70;;;;;;;-1.98;85.76;97030.11;1679843;83;21133;-89
2021/12/21 05:48:26;;;;;;;21.95;15.08;;;;;;;-2.00;85.76;97028.93;1714031;82;21055;-89
2021/12/21 05:50:52;;;;;;;20.70;14.20;;;;;;;-2.05;85.64;97030.11;1716208;81;21418;-89
2021/12/21 05:53:17;;;;;;;26.65;14.40;;;;;;;-2.04;85.92;97033.02;1721007;83;20987;-88
2021/12/21 05:55:44;;;;;;;21.87;14.75;;;;;;;-2.08;85.88;97024.75;1715241;83;21042;-89
2021/12/21 05:58:09;;;;;;;22.20;15.15;;;;;;;-2.10;85.95;97029.56;1712584;82;21019;-89
2021/12/21 06:00:35;;;;;;;22.73;15.35;;;;;;;-2.11;86.12;97030.02;1724733;81;21037;-89
2021/12/21 06:03:02;;;;;;;20.85;14.60;;;;;;;-2.09;86.16;97029.93;1710383;81;20988;-89
2021/12/21 06:05:28;;;;;;;24.02;15.58;;;;;;;-2.06;86.36;97032.30;1716129;83;21004;-89
2021/12/21 06:07:54;;;;;;;19.65;14.20;;;;;;;-2.08;86.07;97037.48;1711706;83;20978;-89
2021/12/21 06:10:32;;;;;;;26.12;15.85;;;;;;;-2.11;86.20;97037.66;1697276;82;21083;-89
2021/12/21 06:15:38;;;;;;;21.15;14.23;;;;;;;-2.19;86.29;97045.72;1650955;82;21491;-89
2021/12/21 06:26:00;;;;;;;23.67;15.00;;;;;;;-2.20;86.83;97054.72;1704636;82;20975;-88
2021/12/21 06:28:27;;;;;;;22.02;16.37;;;;;;;-2.23;86.74;97051.08;1715705;81;21402;-88
2021/12/21 06:30:53;;;;;;;27.05;16.48;;;;;;;-2.28;86.67;97058.98;1705790;82;21076;-88
2021/12/21 06:33:20;;;;;;;28.87;16.82;;;;;;;-2.31;86.74;97061.67;1722726;82;21036;-88
2021/12/21 06:35:46;;;;;;;25.20;14.83;;;;;;;-2.27;86.91;97059.80;1714113;83;21111;-88
2021/12/21 06:38:12;;;;;;;25.10;15.80;;;;;;;-2.26;86.77;97061.44;1713851;82;21014;-88
2021/12/21 06:40:38;;;;;;;27.50;15.78;;;;;;;-2.25;86.90;97063.08;1693760;83;20989;-88
2021/12/21 06:43:04;;;;;;;24.05;14.05;;;;;;;-2.20;87.07;97067.45;1709108;82;21107;-88
2021/12/21 06:53:36;;;;;;;17.52;12.85;;;;;;;-2.11;86.46;97066.95;1712718;82;22132;-89
2021/12/21 06:56:06;;;;;;;18.02;12.98;;;;;;;-2.09;86.64;97075.31;1714279;83;21086;-88
2021/12/21 06:58:32;;;;;;;20.02;12.43;;;;;;;-2.02;86.87;97082.14;1707537;83;21102;-89
2021/12/21 07:00:59;;;;;;;16.90;12.82;;;;;;;-1.97;86.74;97080.95;1710784;82;20992;-89
2021/12/21 07:03:25;;;;;;;21.52;13.53;;;;;;;-1.91;86.78;97084.91;1714842;82;21067;-89
2021/12/21 07:05:51;;;;;;;20.40;14.40;;;;;;;-1.90;86.34;97096.27;1701159;82;21422;-89
2021/12/21 07:08:23;;;;;;;21.02;13.70;;;;;;;-1.92;86.33;97098.55;1702134;83;20997;-89
2021/12/21 07:11:15;;;;;;;20.72;13.68;;;;;;;-1.89;86.43;97092.81;1711058;81;21134;-89
2021/12/21 07:18:47;;;;;;;20.00;14.70;;;;;;;-1.81;86.11;97088.55;1707694;82;21004;-88
2021/12/21 07:21:13;;;;;;;20.40;14.50;;;;;;;-1.85;85.86;97093.45;1705419;83;21027;-88
2021/12/21 07:23:39;;;;;;;26.62;18.80;;;;;;;-1.89;86.04;97094.09;1695329;82;21047;-88
2021/12/21 07:26:04;;;;;;;25.43;14.23;;;;;;;-1.83;86.14;97091.64;1708637;81;21086;-88
2021/12/21 07:28:31;;;;;;;23.38;16.48;;;;;;;-1.84;85.90;97093.81;1709367;83;21031;-88
2021/12/21 07:30:57;;;;;;;18.45;13.28;;;;;;;-1.82;86.03;97102.19;1715513;82;21034;-88
2021/12/21 07:33:24;;;;;;;21.73;13.43;;;;;;;-1.79;85.95;97101.19;1713075;82;21122;-88
2021/12/21 07:35:50;;;;;;;19.82;14.83;;;;;;;-1.82;85.94;97108.10;1718271;81;21023;-88
2021/12/21 07:38:17;;;;;;;26.00;15.80;;;;;;;-1.81;86.02;97114.02;1713126;81;21365;-88
2021/12/21 07:40:43;;;;;;;25.92;16.62;;;;;;;-1.83;85.80;97104.37;1680599;83;21145;-88
2021/12/21 07:43:09;;;;;;;23.30;15.38;;;;;;;-1.88;85.68;97101.28;1702601;82;21383;-88
2021/12/21 07:45:34;;;;;;;30.45;16.67;;;;;;;-1.86;85.89;97102.83;1715317;83;21398;-88
2021/12/21 07:48:01;;;;;;;28.73;17.07;;;;;;;-1.81;86.02;97104.64;1707613;82;21468;-88
2021/12/21 07:50:27;;;;;;;27.98;17.25;;;;;;;-1.76;86.02;97099.77;1683214;83;21106;-87
2021/12/21 07:52:54;;;;;;;26.10;17.65;;;;;;;-1.72;85.96;97105.86;1710369;81;21090;-88
2021/12/21 07:55:21;;;;;;;32.75;18.65;;;;;;;-1.69;85.82;97099.77;1709708;82;21487;-88
2021/12/21 07:57:47;;;;;;;28.92;18.02;;;;;;;-1.70;85.70;97101.49;1713649;82;21095;-87
2021/12/21 08:00:14;;;;;;;32.85;18.65;;;;;;;-1.68;85.74;97106.04;1684140;83;21091;-88
2021/12/21 08:02:40;;;;;;;40.88;20.62;;;;;;;-1.72;85.62;97105.04;1703725;82;21080;-88
2021/12/21 08:05:10;;;;;;;23.07;14.00;;;;;;;-1.93;85.43;97086.27;1709837;82;21082;-85
2021/12/21 08:07:45;;;;;;;33.70;19.52;;;;;;;-1.85;85.48;97105.73;1687695;83;21032;-87
2021/12/21 08:10:19;;;;;;;28.62;16.60;;;;;;;-1.88;85.74;97103.83;1703163;83;21045;-86
2021/12/21 08:12:35;;;;;;;31.50;18.02;;;;;;;-1.92;85.70;97103.19;1706552;82;21473;-86
2021/12/21 08:15:00;;;;;;;33.50;18.98;;;;;;;-1.94;85.80;97113.92;1704936;82;21015;-85
2021/12/21 08:17:26;;;;;;;23.80;15.55;;;;;;;-1.97;85.78;97111.52;1706894;83;21430;-87
2021/12/21 08:19:52;;;;;;;22.50;13.30;;;;;;;-2.01;85.78;97113.88;1708175;82;21059;-87
2021/12/21 08:22:18;;;;;;;22.13;13.72;;;;;;;-2.03;85.83;97113.16;1687152;83;21032;-87
2021/12/21 08:24:44;;;;;;;19.92;14.15;;;;;;;-2.00;86.08;97110.88;1697109;83;21024;-87
2021/12/21 08:27:10;;;;;;;32.00;19.02;;;;;;;-1.98;86.17;97116.70;1705505;81;21019;-87
2021/12/21 08:29:36;;;;;;;21.23;13.60;;;;;;;-2.01;86.10;97118.16;1704964;82;20996;-87
2021/12/21 08:32:02;;;;;;;21.52;14.23;;;;;;;-2.00;86.17;97124.89;1718537;81;21046;-86
2021/12/21 08:34:28;;;;;;;19.75;14.90;;;;;;;-1.99;86.36;97124.80;1712813;82;21044;-86
2021/12/21 08:36:54;;;;;;;21.57;15.20;;;;;;;-2.01;86.23;97129.16;1717104;82;21348;-87
2021/12/21 08:39:23;;;;;;;11.40;7.55;;;;;;;-2.05;86.25;97135.34;1710335;83;21078;-87
2021/12/21 08:41:51;;;;;;;8.18;6.65;;;;;;;-2.05;85.55;97135.80;1712878;82;22042;-86
2021/12/21 08:44:21;;;;;;;9.35;7.50;;;;;;;-2.12;84.92;97144.20;1715055;83;21060;-87
2021/12/21 08:46:43;;;;;;;11.83;7.47;;;;;;;-2.18;84.73;97145.38;1683464;83;21064;-86
2021/12/21 08:49:09;;;;;;;7.97;6.60;;;;;;;-2.13;85.23;97147.66;1674487;83;21056;-86
2021/12/21 08:51:34;;;;;;;11.90;8.55;;;;;;;-2.09;84.75;97147.06;1685606;83;20976;-86
2021/12/21 08:54:00;;;;;;;14.73;9.95;;;;;;;-2.05;85.02;97151.89;1717409;82;21029;-86
2021/12/21 08:56:27;;;;;;;12.82;9.40;;;;;;;-1.88;85.23;97145.85;1718378;83;21054;-86
2021/12/21 08:58:52;;;;;;;13.35;9.63;;;;;;;-1.67;85.48;97144.63;1709960;83;21007;-86
2021/12/21 09:01:18;;;;;;;13.80;9.98;;;;;;;-1.52;85.31;97138.65;1708206;82;20991;-86
2021/12/21 09:03:45;;;;;;;13.48;10.15;;;;;;;-1.40;84.97;97135.85;1716530;82;21041;-86
2021/12/21 09:06:12;;;;;;;17.55;11.83;;;;;;;-1.30;84.87;97136.97;1708391;81;21015;-87
2021/12/21 09:08:38;;;;;;;18.37;12.07;;;;;;;-1.18;84.79;97136.67;1704747;83;21051;-87
2021/12/21 09:11:05;;;;;;;15.88;10.95;;;;;;;-1.12;84.68;97134.23;1712855;82;21070;-87
2021/12/21 09:13:32;;;;;;;19.85;14.33;;;;;;;-1.09;83.71;97138.69;1717596;83;21739;-86
2021/12/21 09:15:58;;;;;;;16.65;11.48;;;;;;;-1.11;83.69;97137.15;1698793;81;21561;-86
2021/12/21 09:18:23;;;;;;;12.95;8.78;;;;;;;-1.21;83.41;97140.69;1714908;82;21086;-86
2021/12/21 09:20:49;;;;;;;17.92;11.90;;;;;;;-1.26;83.03;97143.52;1714428;82;21073;-87
2021/12/21 09:23:15;;;;;;;19.10;14.58;;;;;;;-1.34;83.68;97158.42;1702633;83;21037;-86
2021/12/21 09:25:40;;;;;;;19.02;14.90;;;;;;;-1.28;84.01;97156.81;1681888;83;21127;-86
2021/12/21 09:28:06;;;;;;;19.80;15.23;;;;;;;-1.31;83.76;97156.97;1710565;82;21056;-87
2021/12/21 09:30:32;;;;;;;20.17;14.98;;;;;;;-1.25;84.14;97160.45;1714900;82;21087;-87
2021/12/21 09:32:58;;;;;;;21.50;14.98;;;;;;;-1.26;83.61;97158.81;1708315;81;21091;-86
2021/12/21 09:35:24;;;;;;;23.73;16.10;;;;;;;-1.27;83.66;97154.62;1708011;82;21012;-85
2021/12/21 09:37:50;;;;;;;19.90;15.23;;;;;;;-1.21;83.54;97161.09;1695189;83;21429;-85
2021/12/21 09:40:20;;;;;;;24.37;16.27;;;;;;;-1.13;83.38;97155.55;1708808;83;21054;-85
2021/12/21 09:42:46;;;;;;;20.15;14.35;;;;;;;-1.07;83.09;97157.73;1706969;82;21015;-85
2021/12/21 09:45:12;;;;;;;26.80;16.87;;;;;;;-1.13;82.83;97152.55;1707954;83;21003;-85
2021/12/21 09:47:37;;;;;;;22.45;16.12;;;;;;;-1.13;83.13;97153.82;1711041;83;21028;-85
2021/12/21 09:50:04;;;;;;;20.15;14.80;;;;;;;-1.04;83.00;97152.44;1709432;83;20996;-85
2021/12/21 09:52:32;;;;;;;22.25;16.25;;;;;;;-1.03;82.35;97152.34;1716195;82;20984;-85
2021/12/21 09:54:59;;;;;;;25.35;19.95;;;;;;;-1.06;83.05;97155.08;1697366;83;21067;-86
2021/12/21 09:57:25;;;;;;;29.05;17.67;;;;;;;-0.98;83.39;97154.61;1715290;81;21018;-84
2021/12/21 09:59:52;;;;;;;24.35;17.27;;;;;;;-0.85;83.55;97146.59;1716916;83;21159;-85
2021/12/21 10:02:20;;;;;;;23.15;15.40;;;;;;;-0.71;83.23;97139.38;1715260;82;21039;-85
2021/12/21 10:04:56;;;;;;;13.20;10.08;;;;;;;-0.73;82.39;97142.48;1682254;83;21079;-85
2021/12/21 10:07:22;;;;;;;15.55;10.70;;;;;;;-0.78;81.37;97150.42;1670548;84;21031;-84
2021/12/21 10:09:48;;;;;;;16.37;10.98;;;;;;;-0.80;81.48;97148.43;1705838;82;21078;-84
2021/12/21 10:12:29;;;;;;;15.90;11.65;;;;;;;-0.75;81.78;97148.14;1699388;83;21012;-88
2021/12/21 10:15:12;;;;;;;17.90;12.60;;;;;;;-0.78;81.46;97137.67;1709726;82;21074;-88
2021/12/21 10:17:48;;;;;;;17.98;12.55;;;;;;;-0.76;81.81;97150.33;1715160;82;21012;-88
2021/12/21 10:20:14;;;;;;;18.32;12.53;;;;;;;-0.80;81.84;97153.98;1718083;82;20991;-88
2021/12/21 10:22:51;;;;;;;22.20;13.35;;;;;;;-0.85;81.43;97153.42;1715115;82;21134;-88
2021/12/21 10:25:17;;;;;;;20.85;14.18;;;;;;;-0.98;81.59;97148.23;1708550;83;21024;-88
2021/12/21 10:27:44;;;;;;;17.15;12.00;;;;;;;-1.03;81.63;97145.15;1721137;83;21454;-88
2021/12/21 10:30:11;;;;;;;19.70;12.30;;;;;;;-1.17;81.16;97148.52;1708265;83;21041;-87
2021/12/21 10:32:37;;;;;;;16.40;11.88;;;;;;;-1.23;81.15;97152.25;1719304;81;21370;-88
2021/12/21 10:35:10;;;;;;;15.88;10.50;;;;;;;-1.22;81.25;97144.97;1708821;83;20996;-88
2021/12/21 10:37:39;;;;;;;14.40;10.38;;;;;;;-1.16;80.73;97149.33;1704686;82;21092;-86
2021/12/21 10:40:27;;;;;;;15.03;9.73;;;;;;;-1.18;80.49;97146.88;1713046;83;21457;-86
2021/12/21 10:43:04;;;;;;;17.80;12.23;;;;;;;-1.24;80.25;97140.41;1710484;83;21711;-86
2021/12/21 10:45:41;;;;;;;20.50;13.00;;;;;;;-1.23;80.96;97148.43;1720046;81;21031;-86
2021/12/21 10:48:16;;;;;;;18.67;12.20;;;;;;;-1.22;81.32;97139.87;1689812;82;22576;-86
2021/12/21 10:50:40;;;;;;;19.10;13.75;;;;;;;-1.12;81.07;97139.33;1712263;82;21075;-86
2021/12/21 10:53:06;;;;;;;21.45;13.88;;;;;;;-1.14;80.95;97139.86;1689132;83;21466;-86
2021/12/21 10:55:35;;;;;;;19.75;13.98;;;;;;;-1.18;80.82;97138.41;1639997;84;21019;-87
2021/12/21 10:58:05;;;;;;;19.87;14.85;;;;;;;-1.19;80.95;97135.03;1715666;82;21015;-86
2021/12/21 11:00:31;;;;;;;20.20;13.43;;;;;;;-1.19;81.50;97141.41;1700579;83;21029;-85
2021/12/21 11:02:57;;;;;;;21.48;13.35;;;;;;;-1.24;81.32;97139.14;1694177;83;21012;-86
2021/12/21 11:05:23;;;;;;;21.25;13.58;;;;;;;-1.24;81.85;97139.14;1706636;83;21517;-87
2021/12/21 11:08:07;;;;;;;20.82;13.58;;;;;;;-1.27;81.59;97142.33;1702060;83;21134;-86
2021/12/21 11:10:35;;;;;;;21.27;14.95;;;;;;;-1.26;81.86;97129.95;1695724;82;21762;-86
2021/12/21 11:13:07;;;;;;;18.73;12.93;;;;;;;-1.23;81.57;97125.48;1718294;83;21019;-86
2021/12/21 11:15:52;;;;;;;17.30;13.43;;;;;;;-1.26;81.16;97129.49;1707161;82;21103;-86
2021/12/21 11:18:16;;;;;;;16.80;12.60;;;;;;;-1.24;81.18;97127.67;1714178;83;21011;-88
2021/12/21 11:20:45;;;;;;;17.50;12.30;;;;;;;-1.23;80.84;97128.48;1711909;82;20972;-85
2021/12/21 11:23:12;;;;;;;17.15;11.53;;;;;;;-1.29;80.20;97127.59;1711537;82;20973;-84
2021/12/21 11:25:39;;;;;;;18.05;13.53;;;;;;;-1.24;80.23;97127.67;1719089;81;21031;-85
2021/12/21 11:28:05;;;;;;;17.90;14.07;;;;;;;-1.16;80.64;97128.47;1701326;83;21020;-84
2021/12/21 11:30:31;;;;;;;16.60;12.75;;;;;;;-1.03;80.81;97127.30;1717051;83;21422;-86
2021/12/21 11:32:57;;;;;;;16.77;13.90;;;;;;;-1.02;80.30;97126.38;1715723;82;21083;-89
2021/12/21 11:37:55;;;;;;;17.07;12.68;;;;;;;-1.00;79.95;97122.81;1706987;83;20987;-86
2021/12/21 11:40:25;;;;;;;19.90;13.62;;;;;;;-1.01;79.67;97123.73;1695066;83;21132;-86
2021/12/21 11:43:14;;;;;;;18.23;12.65;;;;;;;-1.04;79.76;97117.55;1706562;83;21023;-84
2021/12/21 11:46:01;;;;;;;19.27;12.93;;;;;;;-0.98;79.86;97124.84;1704336;83;21441;-84
2021/12/21 11:48:49;;;;;;;20.60;14.73;;;;;;;-1.05;79.24;97131.67;1714138;82;21347;-83
2021/12/21 11:51:15;;;;;;;21.42;13.62;;;;;;;-1.08;79.52;97125.48;1715047;83;21042;-83
2021/12/21 11:53:41;;;;;;;20.45;13.75;;;;;;;-1.04;79.97;97132.84;1713107;83;20948;-84
2021/12/21 11:56:08;;;;;;;21.33;14.13;;;;;;;-1.03;79.87;97135.77;1717640;82;21485;-85
2021/12/21 11:58:40;;;;;;;22.13;14.40;;;;;;;-1.05;79.90;97135.03;1720571;82;21158;-83
2021/12/21 12:01:25;;;;;;;24.00;15.65;;;;;;;-1.10;79.83;97132.41;1705993;82;21059;-84
2021/12/21 12:03:59;;;;;;;22.55;15.43;;;;;;;-1.09;79.92;97137.88;1709822;82;21035;-84
2021/12/21 12:06:26;;;;;;;21.40;15.72;;;;;;;-1.12;79.81;97136.33;1692775;83;21146;-84
2021/12/21 12:09:02;;;;;;;23.65;15.65;;;;;;;-1.05;79.99;97133.77;1704440;82;21460;-84
2021/12/21 12:11:39;;;;;;;23.67;17.35;;;;;;;-0.96;80.16;97136.23;1707322;83;21003;-83
2021/12/21 12:14:11;;;;;;;22.10;16.70;;;;;;;-0.88;80.30;97134.48;1685322;84;21049;-84
2021/12/21 12:16:56;;;;;;;21.17;15.70;;;;;;;-0.85;80.23;97130.00;1718508;82;21425;-82
2021/12/21 12:19:35;;;;;;;22.93;16.17;;;;;;;-0.83;79.44;97138.84;1710244;82;21062;-84
2021/12/21 12:22:06;;;;;;;26.55;17.05;;;;;;;-0.84;79.29;97139.75;1719283;82;22415;-82
2021/12/21 12:24:45;;;;;;;20.68;16.37;;;;;;;-0.89;79.13;97139.22;1715994;81;21035;-82
2021/12/21 12:27:22;;;;;;;28.30;16.90;;;;;;;-0.96;78.93;97133.68;1705454;81;21421;-82
2021/12/21 12:29:52;;;;;;;31.70;19.70;;;;;;;-1.03;78.68;97131.12;1705686;83;21426;-82
2021/12/21 12:32:32;;;;;;;21.97;15.15;;;;;;;-1.00;78.60;97134.30;1709354;81;21067;-83
2021/12/21 12:35:21;;;;;;;23.25;14.55;;;;;;;-1.00;78.54;97134.30;1704004;83;21386;-82
2021/12/21 12:37:55;;;;;;;23.85;14.93;;;;;;;-0.90;78.50;97133.30;1708419;83;21026;-82